sensor_id;sensor_type;location;lat;lon;timestamp;P1;durP1;ratioP1;P2;durP2;ratioP2
18387;SDS011;9320;50.256;19.026;2022-10-26T00:00:32;32.90;;;19.13;;
18387;SDS011;9320;50.256;19.026;2022-10-26T00:03:00;37.37;;;19.23;;
18387;SDS011;9320;50.256;19.026;2022-10-26T00:05:31;30.27;;;18.13;;
18387;SDS011;9320;50.256;19.026;2022-10-26T00:07:59;30.90;;;18.67;;
18387;SDS011;9320;50.256;19.026;2022-10-26T00:10:27;28.60;;;17.33;;
18387;SDS011;9320;50.256;19.026;2022-10-26T00:12:57;33.67;;;19.33;;
18387;SDS011;9320;50.256;19.026;2022-10-26T00:15:25;33.53;;;19.40;;
18387;SDS011;9320;50.256;19.026;2022-10-26T00:17:53;30.47;;;17.70;;
18387;SDS011;9320;50.256;19.026;2022-10-26T00:20:21;34.17;;;17.67;;
18387;SDS011;9320;50.256;19.026;2022-10-26T00:22:50;30.53;;;17.50;;
18387;SDS011;9320;50.256;19.026;2022-10-26T00:25:18;32.03;;;18.67;;
18387;SDS011;9320;50.256;19.026;2022-10-26T00:27:46;32.00;;;18.50;;
18387;SDS011;9320;50.256;19.026;2022-10-26T00:30:15;32.87;;;18.00;;
18387;SDS011;9320;50.256;19.026;2022-10-26T00:32:43;31.67;;;19.10;;
18387;SDS011;9320;50.256;19.026;2022-10-26T00:35:10;32.57;;;17.00;;
18387;SDS011;9320;50.256;19.026;2022-10-26T00:37:54;32.30;;;17.37;;
18387;SDS011;9320;50.256;19.026;2022-10-26T00:40:26;28.87;;;16.77;;
18387;SDS011;9320;50.256;19.026;2022-10-26T00:42:54;33.23;;;18.13;;
18387;SDS011;9320;50.256;19.026;2022-10-26T00:45:23;30.23;;;16.73;;
18387;SDS011;9320;50.256;19.026;2022-10-26T00:47:52;28.77;;;17.77;;
18387;SDS011;9320;50.256;19.026;2022-10-26T00:50:25;30.63;;;18.50;;
18387;SDS011;9320;50.256;19.026;2022-10-26T00:52:57;35.10;;;19.23;;
18387;SDS011;9320;50.256;19.026;2022-10-26T00:55:28;33.50;;;18.57;;
18387;SDS011;9320;50.256;19.026;2022-10-26T00:57:58;34.47;;;18.67;;
18387;SDS011;9320;50.256;19.026;2022-10-26T01:00:29;30.17;;;18.47;;
18387;SDS011;9320;50.256;19.026;2022-10-26T01:02:58;36.40;;;19.27;;
18387;SDS011;9320;50.256;19.026;2022-10-26T01:05:28;31.97;;;18.17;;
18387;SDS011;9320;50.256;19.026;2022-10-26T01:07:59;33.57;;;17.27;;
18387;SDS011;9320;50.256;19.026;2022-10-26T01:10:28;34.70;;;18.70;;
18387;SDS011;9320;50.256;19.026;2022-10-26T01:12:56;33.60;;;18.67;;
18387;SDS011;9320;50.256;19.026;2022-10-26T01:15:29;32.23;;;18.80;;
18387;SDS011;9320;50.256;19.026;2022-10-26T01:18:06;33.13;;;20.00;;
18387;SDS011;9320;50.256;19.026;2022-10-26T01:23:44;32.57;;;18.23;;
18387;SDS011;9320;50.256;19.026;2022-10-26T01:29:28;36.03;;;19.53;;
18387;SDS011;9320;50.256;19.026;2022-10-26T01:32:21;31.87;;;17.80;;
18387;SDS011;9320;50.256;19.026;2022-10-26T01:34:54;34.50;;;19.37;;
18387;SDS011;9320;50.256;19.026;2022-10-26T01:37:32;32.70;;;18.03;;
18387;SDS011;9320;50.256;19.026;2022-10-26T01:40:05;31.53;;;17.70;;
18387;SDS011;9320;50.256;19.026;2022-10-26T01:42:38;36.40;;;19.63;;
18387;SDS011;9320;50.256;19.026;2022-10-26T01:45:12;34.73;;;19.07;;
18387;SDS011;9320;50.256;19.026;2022-10-26T01:47:43;37.03;;;20.43;;
18387;SDS011;9320;50.256;19.026;2022-10-26T01:50:14;36.33;;;19.97;;
18387;SDS011;9320;50.256;19.026;2022-10-26T01:52:47;39.47;;;21.23;;
18387;SDS011;9320;50.256;19.026;2022-10-26T01:58:08;92.63;;;39.80;;
18387;SDS011;9320;50.256;19.026;2022-10-26T02:00:49;56.10;;;27.37;;
18387;SDS011;9320;50.256;19.026;2022-10-26T02:03:27;38.80;;;22.33;;
18387;SDS011;9320;50.256;19.026;2022-10-26T02:06:03;35.47;;;20.33;;
18387;SDS011;9320;50.256;19.026;2022-10-26T02:08:40;37.97;;;20.37;;
18387;SDS011;9320;50.256;19.026;2022-10-26T02:11:21;36.30;;;19.83;;
18387;SDS011;9320;50.256;19.026;2022-10-26T02:13:59;32.87;;;19.73;;
18387;SDS011;9320;50.256;19.026;2022-10-26T02:16:36;31.47;;;19.70;;
18387;SDS011;9320;50.256;19.026;2022-10-26T02:19:13;35.33;;;21.03;;
18387;SDS011;9320;50.256;19.026;2022-10-26T02:21:52;34.83;;;19.83;;
18387;SDS011;9320;50.256;19.026;2022-10-26T02:24:24;34.33;;;20.20;;
18387;SDS011;9320;50.256;19.026;2022-10-26T02:26:54;35.70;;;21.13;;
18387;SDS011;9320;50.256;19.026;2022-10-26T02:29:23;40.87;;;21.10;;
18387;SDS011;9320;50.256;19.026;2022-10-26T02:31:52;34.97;;;21.30;;
18387;SDS011;9320;50.256;19.026;2022-10-26T02:34:24;44.93;;;24.07;;
18387;SDS011;9320;50.256;19.026;2022-10-26T02:36:54;45.17;;;25.80;;
18387;SDS011;9320;50.256;19.026;2022-10-26T02:39:26;43.13;;;25.33;;
18387;SDS011;9320;50.256;19.026;2022-10-26T02:41:59;43.40;;;25.00;;
18387;SDS011;9320;50.256;19.026;2022-10-26T02:44:30;52.23;;;27.80;;
18387;SDS011;9320;50.256;19.026;2022-10-26T02:47:01;52.37;;;27.37;;
18387;SDS011;9320;50.256;19.026;2022-10-26T02:49:30;57.30;;;30.10;;
18387;SDS011;9320;50.256;19.026;2022-10-26T02:52:00;53.60;;;28.10;;
18387;SDS011;9320;50.256;19.026;2022-10-26T02:54:34;42.40;;;23.47;;
18387;SDS011;9320;50.256;19.026;2022-10-26T02:57:09;40.90;;;23.63;;
18387;SDS011;9320;50.256;19.026;2022-10-26T02:59:41;40.67;;;21.50;;
18387;SDS011;9320;50.256;19.026;2022-10-26T03:02:13;35.90;;;21.73;;
18387;SDS011;9320;50.256;19.026;2022-10-26T03:04:44;36.87;;;20.77;;
18387;SDS011;9320;50.256;19.026;2022-10-26T03:07:12;36.13;;;21.23;;
18387;SDS011;9320;50.256;19.026;2022-10-26T03:09:40;34.50;;;20.73;;
18387;SDS011;9320;50.256;19.026;2022-10-26T03:12:07;35.57;;;21.00;;
18387;SDS011;9320;50.256;19.026;2022-10-26T03:14:35;32.53;;;19.33;;
18387;SDS011;9320;50.256;19.026;2022-10-26T03:17:03;42.87;;;21.00;;
18387;SDS011;9320;50.256;19.026;2022-10-26T03:19:31;36.80;;;21.73;;
18387;SDS011;9320;50.256;19.026;2022-10-26T03:22:01;38.03;;;21.17;;
18387;SDS011;9320;50.256;19.026;2022-10-26T03:24:29;41.07;;;21.30;;
18387;SDS011;9320;50.256;19.026;2022-10-26T03:26:57;37.73;;;21.63;;
18387;SDS011;9320;50.256;19.026;2022-10-26T03:29:27;32.63;;;20.40;;
18387;SDS011;9320;50.256;19.026;2022-10-26T03:31:55;31.97;;;19.07;;
18387;SDS011;9320;50.256;19.026;2022-10-26T03:34:23;31.97;;;18.23;;
18387;SDS011;9320;50.256;19.026;2022-10-26T03:36:51;32.97;;;18.17;;
18387;SDS011;9320;50.256;19.026;2022-10-26T03:39:21;30.77;;;18.83;;
18387;SDS011;9320;50.256;19.026;2022-10-26T03:41:49;31.77;;;19.67;;
18387;SDS011;9320;50.256;19.026;2022-10-26T03:44:17;36.07;;;20.27;;
18387;SDS011;9320;50.256;19.026;2022-10-26T03:46:45;33.17;;;19.90;;
18387;SDS011;9320;50.256;19.026;2022-10-26T03:49:13;35.23;;;19.03;;
18387;SDS011;9320;50.256;19.026;2022-10-26T03:51:40;33.90;;;19.87;;
18387;SDS011;9320;50.256;19.026;2022-10-26T03:54:08;32.60;;;18.33;;
18387;SDS011;9320;50.256;19.026;2022-10-26T03:56:38;35.83;;;19.23;;
18387;SDS011;9320;50.256;19.026;2022-10-26T03:59:06;32.23;;;19.23;;
18387;SDS011;9320;50.256;19.026;2022-10-26T04:01:34;32.90;;;19.17;;
18387;SDS011;9320;50.256;19.026;2022-10-26T04:04:02;31.37;;;19.23;;
18387;SDS011;9320;50.256;19.026;2022-10-26T04:06:30;35.20;;;19.47;;
18387;SDS011;9320;50.256;19.026;2022-10-26T04:08:58;37.30;;;19.93;;
18387;SDS011;9320;50.256;19.026;2022-10-26T04:11:27;33.97;;;19.47;;
18387;SDS011;9320;50.256;19.026;2022-10-26T04:13:57;35.93;;;19.80;;
18387;SDS011;9320;50.256;19.026;2022-10-26T04:16:26;35.57;;;21.30;;
18387;SDS011;9320;50.256;19.026;2022-10-26T04:18:58;36.87;;;20.27;;
18387;SDS011;9320;50.256;19.026;2022-10-26T04:21:27;37.37;;;20.97;;
18387;SDS011;9320;50.256;19.026;2022-10-26T04:23:55;38.77;;;21.03;;
18387;SDS011;9320;50.256;19.026;2022-10-26T04:26:22;36.67;;;21.53;;
18387;SDS011;9320;50.256;19.026;2022-10-26T04:28:51;38.13;;;21.10;;
18387;SDS011;9320;50.256;19.026;2022-10-26T04:31:20;43.00;;;21.03;;
18387;SDS011;9320;50.256;19.026;2022-10-26T04:33:48;32.53;;;20.17;;
18387;SDS011;9320;50.256;19.026;2022-10-26T04:36:16;32.77;;;19.70;;
18387;SDS011;9320;50.256;19.026;2022-10-26T04:38:44;36.47;;;20.87;;
18387;SDS011;9320;50.256;19.026;2022-10-26T04:41:14;34.10;;;19.57;;
18387;SDS011;9320;50.256;19.026;2022-10-26T04:43:42;34.33;;;19.00;;
18387;SDS011;9320;50.256;19.026;2022-10-26T04:46:10;34.20;;;19.70;;
18387;SDS011;9320;50.256;19.026;2022-10-26T04:48:43;36.57;;;18.67;;
18387;SDS011;9320;50.256;19.026;2022-10-26T04:51:11;34.30;;;17.93;;
18387;SDS011;9320;50.256;19.026;2022-10-26T04:53:39;31.83;;;19.57;;
18387;SDS011;9320;50.256;19.026;2022-10-26T04:56:07;35.07;;;18.57;;
18387;SDS011;9320;50.256;19.026;2022-10-26T04:58:35;32.67;;;18.00;;
18387;SDS011;9320;50.256;19.026;2022-10-26T05:01:03;35.13;;;18.23;;
18387;SDS011;9320;50.256;19.026;2022-10-26T05:03:31;36.30;;;18.50;;
18387;SDS011;9320;50.256;19.026;2022-10-26T05:06:01;32.90;;;17.17;;
18387;SDS011;9320;50.256;19.026;2022-10-26T05:08:28;34.27;;;17.57;;
18387;SDS011;9320;50.256;19.026;2022-10-26T05:10:56;32.90;;;18.37;;
18387;SDS011;9320;50.256;19.026;2022-10-26T05:13:24;33.60;;;17.43;;
18387;SDS011;9320;50.256;19.026;2022-10-26T05:15:57;38.47;;;18.00;;
18387;SDS011;9320;50.256;19.026;2022-10-26T05:18:25;33.13;;;18.20;;
18387;SDS011;9320;50.256;19.026;2022-10-26T05:20:53;32.63;;;18.00;;
18387;SDS011;9320;50.256;19.026;2022-10-26T05:23:23;28.80;;;17.10;;
18387;SDS011;9320;50.256;19.026;2022-10-26T05:25:51;32.73;;;18.53;;
18387;SDS011;9320;50.256;19.026;2022-10-26T05:28:21;34.30;;;17.90;;
18387;SDS011;9320;50.256;19.026;2022-10-26T05:30:49;36.47;;;18.37;;
18387;SDS011;9320;50.256;19.026;2022-10-26T05:33:17;33.83;;;19.60;;
18387;SDS011;9320;50.256;19.026;2022-10-26T05:35:45;32.80;;;18.33;;
18387;SDS011;9320;50.256;19.026;2022-10-26T05:38:15;36.23;;;19.27;;
18387;SDS011;9320;50.256;19.026;2022-10-26T05:40:49;36.03;;;19.20;;
18387;SDS011;9320;50.256;19.026;2022-10-26T05:43:19;33.50;;;18.73;;
18387;SDS011;9320;50.256;19.026;2022-10-26T05:45:48;43.73;;;19.03;;
18387;SDS011;9320;50.256;19.026;2022-10-26T05:48:17;35.13;;;18.50;;
18387;SDS011;9320;50.256;19.026;2022-10-26T05:50:45;42.80;;;20.57;;
18387;SDS011;9320;50.256;19.026;2022-10-26T05:53:13;40.03;;;19.60;;
18387;SDS011;9320;50.256;19.026;2022-10-26T05:55:44;38.47;;;20.03;;
18387;SDS011;9320;50.256;19.026;2022-10-26T05:58:14;37.83;;;20.03;;
18387;SDS011;9320;50.256;19.026;2022-10-26T06:00:46;35.27;;;18.70;;
18387;SDS011;9320;50.256;19.026;2022-10-26T06:03:30;34.30;;;20.03;;
18387;SDS011;9320;50.256;19.026;2022-10-26T06:06:06;33.40;;;18.60;;
18387;SDS011;9320;50.256;19.026;2022-10-26T06:08:38;40.17;;;18.67;;
18387;SDS011;9320;50.256;19.026;2022-10-26T06:11:08;35.97;;;19.23;;
18387;SDS011;9320;50.256;19.026;2022-10-26T06:13:38;37.60;;;18.10;;
18387;SDS011;9320;50.256;19.026;2022-10-26T06:16:11;36.57;;;18.07;;
18387;SDS011;9320;50.256;19.026;2022-10-26T06:18:53;38.13;;;18.70;;
18387;SDS011;9320;50.256;19.026;2022-10-26T06:21:33;42.60;;;19.00;;
18387;SDS011;9320;50.256;19.026;2022-10-26T06:24:13;43.77;;;19.57;;
18387;SDS011;9320;50.256;19.026;2022-10-26T06:26:48;42.17;;;21.03;;
18387;SDS011;9320;50.256;19.026;2022-10-26T06:29:29;42.53;;;19.17;;
18387;SDS011;9320;50.256;19.026;2022-10-26T06:32:05;46.03;;;20.67;;
18387;SDS011;9320;50.256;19.026;2022-10-26T06:34:34;41.37;;;19.17;;
18387;SDS011;9320;50.256;19.026;2022-10-26T06:37:05;36.97;;;19.27;;
18387;SDS011;9320;50.256;19.026;2022-10-26T06:39:34;36.00;;;18.83;;
18387;SDS011;9320;50.256;19.026;2022-10-26T06:42:06;37.53;;;19.77;;
18387;SDS011;9320;50.256;19.026;2022-10-26T06:44:38;34.07;;;18.50;;
18387;SDS011;9320;50.256;19.026;2022-10-26T06:47:08;40.83;;;19.37;;
18387;SDS011;9320;50.256;19.026;2022-10-26T06:49:50;39.27;;;18.67;;
18387;SDS011;9320;50.256;19.026;2022-10-26T06:52:26;40.97;;;18.60;;
18387;SDS011;9320;50.256;19.026;2022-10-26T06:55:00;45.07;;;18.50;;
18387;SDS011;9320;50.256;19.026;2022-10-26T06:57:31;44.83;;;18.37;;
18387;SDS011;9320;50.256;19.026;2022-10-26T07:00:03;42.80;;;19.43;;
18387;SDS011;9320;50.256;19.026;2022-10-26T07:02:35;37.97;;;18.17;;
18387;SDS011;9320;50.256;19.026;2022-10-26T07:05:11;40.90;;;18.63;;
18387;SDS011;9320;50.256;19.026;2022-10-26T07:07:40;44.33;;;18.80;;
18387;SDS011;9320;50.256;19.026;2022-10-26T07:10:10;41.63;;;18.53;;
18387;SDS011;9320;50.256;19.026;2022-10-26T07:12:38;36.90;;;18.73;;
18387;SDS011;9320;50.256;19.026;2022-10-26T07:15:08;45.80;;;20.00;;
18387;SDS011;9320;50.256;19.026;2022-10-26T07:17:43;48.13;;;19.83;;
18387;SDS011;9320;50.256;19.026;2022-10-26T07:20:14;38.17;;;19.80;;
18387;SDS011;9320;50.256;19.026;2022-10-26T07:22:42;43.77;;;20.23;;
18387;SDS011;9320;50.256;19.026;2022-10-26T07:25:10;39.27;;;22.00;;
18387;SDS011;9320;50.256;19.026;2022-10-26T07:27:39;50.20;;;23.30;;
18387;SDS011;9320;50.256;19.026;2022-10-26T07:30:09;55.53;;;28.20;;
18387;SDS011;9320;50.256;19.026;2022-10-26T07:32:38;57.20;;;28.93;;
18387;SDS011;9320;50.256;19.026;2022-10-26T07:35:06;54.07;;;29.40;;
18387;SDS011;9320;50.256;19.026;2022-10-26T07:37:34;55.90;;;29.50;;
18387;SDS011;9320;50.256;19.026;2022-10-26T07:40:03;52.43;;;28.73;;
18387;SDS011;9320;50.256;19.026;2022-10-26T07:42:32;50.27;;;27.30;;
18387;SDS011;9320;50.256;19.026;2022-10-26T07:45:03;44.20;;;24.87;;
18387;SDS011;9320;50.256;19.026;2022-10-26T07:47:33;48.10;;;21.47;;
18387;SDS011;9320;50.256;19.026;2022-10-26T07:50:01;40.57;;;20.37;;
18387;SDS011;9320;50.256;19.026;2022-10-26T07:52:30;42.67;;;19.93;;
18387;SDS011;9320;50.256;19.026;2022-10-26T07:55:00;43.17;;;19.40;;
18387;SDS011;9320;50.256;19.026;2022-10-26T07:57:28;40.57;;;20.17;;
18387;SDS011;9320;50.256;19.026;2022-10-26T07:59:56;34.50;;;17.57;;
18387;SDS011;9320;50.256;19.026;2022-10-26T08:02:24;36.10;;;18.50;;
18387;SDS011;9320;50.256;19.026;2022-10-26T08:04:53;41.17;;;18.07;;
18387;SDS011;9320;50.256;19.026;2022-10-26T08:07:21;35.87;;;17.67;;
18387;SDS011;9320;50.256;19.026;2022-10-26T08:09:51;36.50;;;17.27;;
18387;SDS011;9320;50.256;19.026;2022-10-26T08:12:19;33.90;;;17.10;;
18387;SDS011;9320;50.256;19.026;2022-10-26T08:14:47;34.50;;;17.03;;
18387;SDS011;9320;50.256;19.026;2022-10-26T08:17:15;31.57;;;15.43;;
18387;SDS011;9320;50.256;19.026;2022-10-26T08:19:43;29.63;;;14.17;;
18387;SDS011;9320;50.256;19.026;2022-10-26T08:22:15;31.80;;;14.83;;
18387;SDS011;9320;50.256;19.026;2022-10-26T08:24:43;28.73;;;13.83;;
18387;SDS011;9320;50.256;19.026;2022-10-26T08:27:12;27.00;;;13.43;;
18387;SDS011;9320;50.256;19.026;2022-10-26T08:29:40;22.33;;;11.80;;
18387;SDS011;9320;50.256;19.026;2022-10-26T08:32:09;26.47;;;12.33;;
18387;SDS011;9320;50.256;19.026;2022-10-26T08:34:37;21.37;;;11.50;;
18387;SDS011;9320;50.256;19.026;2022-10-26T08:37:05;25.97;;;12.00;;
18387;SDS011;9320;50.256;19.026;2022-10-26T08:39:34;22.13;;;12.00;;
18387;SDS011;9320;50.256;19.026;2022-10-26T08:42:03;23.17;;;12.17;;
18387;SDS011;9320;50.256;19.026;2022-10-26T08:44:39;24.70;;;12.32;;
18387;SDS011;9320;50.256;19.026;2022-10-26T08:47:13;21.25;;;11.07;;
18387;SDS011;9320;50.256;19.026;2022-10-26T08:49:46;23.63;;;11.15;;
18387;SDS011;9320;50.256;19.026;2022-10-26T08:52:25;25.77;;;11.90;;
18387;SDS011;9320;50.256;19.026;2022-10-26T08:55:00;16.38;;;9.55;;
18387;SDS011;9320;50.256;19.026;2022-10-26T08:57:32;17.05;;;10.07;;
18387;SDS011;9320;50.256;19.026;2022-10-26T09:00:04;16.33;;;9.43;;
18387;SDS011;9320;50.256;19.026;2022-10-26T09:02:37;23.98;;;10.43;;
18387;SDS011;9320;50.256;19.026;2022-10-26T09:05:07;20.27;;;10.20;;
18387;SDS011;9320;50.256;19.026;2022-10-26T09:07:46;17.17;;;10.13;;
18387;SDS011;9320;50.256;19.026;2022-10-26T09:10:32;21.47;;;9.73;;
18387;SDS011;9320;50.256;19.026;2022-10-26T09:13:07;18.23;;;10.53;;
18387;SDS011;9320;50.256;19.026;2022-10-26T09:15:46;23.92;;;9.63;;
18387;SDS011;9320;50.256;19.026;2022-10-26T09:18:24;24.87;;;9.87;;
18387;SDS011;9320;50.256;19.026;2022-10-26T09:21:04;15.43;;;9.63;;
18387;SDS011;9320;50.256;19.026;2022-10-26T09:23:49;18.83;;;9.52;;
18387;SDS011;9320;50.256;19.026;2022-10-26T09:26:30;19.98;;;9.45;;
18387;SDS011;9320;50.256;19.026;2022-10-26T09:29:04;21.90;;;10.93;;
18387;SDS011;9320;50.256;19.026;2022-10-26T09:31:38;22.48;;;9.98;;
18387;SDS011;9320;50.256;19.026;2022-10-26T09:34:13;21.33;;;9.93;;
18387;SDS011;9320;50.256;19.026;2022-10-26T09:36:46;17.47;;;9.33;;
18387;SDS011;9320;50.256;19.026;2022-10-26T09:39:21;21.13;;;9.88;;
18387;SDS011;9320;50.256;19.026;2022-10-26T09:41:59;18.67;;;9.05;;
18387;SDS011;9320;50.256;19.026;2022-10-26T09:44:35;18.97;;;8.60;;
18387;SDS011;9320;50.256;19.026;2022-10-26T09:47:08;17.20;;;8.63;;
18387;SDS011;9320;50.256;19.026;2022-10-26T09:49:43;18.73;;;7.93;;
18387;SDS011;9320;50.256;19.026;2022-10-26T09:52:14;20.42;;;8.77;;
18387;SDS011;9320;50.256;19.026;2022-10-26T09:54:42;17.85;;;8.95;;
18387;SDS011;9320;50.256;19.026;2022-10-26T09:57:13;14.88;;;8.25;;
18387;SDS011;9320;50.256;19.026;2022-10-26T09:59:42;14.40;;;7.47;;
18387;SDS011;9320;50.256;19.026;2022-10-26T10:05:00;14.00;;;6.47;;
18387;SDS011;9320;50.256;19.026;2022-10-26T10:07:28;12.45;;;6.20;;
18387;SDS011;9320;50.256;19.026;2022-10-26T10:10:06;9.95;;;6.57;;
18387;SDS011;9320;50.256;19.026;2022-10-26T10:12:41;10.05;;;6.40;;
18387;SDS011;9320;50.256;19.026;2022-10-26T10:15:15;9.27;;;5.60;;
18387;SDS011;9320;50.256;19.026;2022-10-26T10:17:48;10.05;;;5.47;;
18387;SDS011;9320;50.256;19.026;2022-10-26T10:20:19;8.73;;;5.22;;
18387;SDS011;9320;50.256;19.026;2022-10-26T10:22:55;11.32;;;5.38;;
18387;SDS011;9320;50.256;19.026;2022-10-26T10:25:30;11.07;;;5.35;;
18387;SDS011;9320;50.256;19.026;2022-10-26T10:28:02;10.60;;;5.80;;
18387;SDS011;9320;50.256;19.026;2022-10-26T10:30:51;9.98;;;5.30;;
18387;SDS011;9320;50.256;19.026;2022-10-26T10:33:22;12.70;;;5.00;;
18387;SDS011;9320;50.256;19.026;2022-10-26T10:36:00;8.27;;;5.32;;
18387;SDS011;9320;50.256;19.026;2022-10-26T10:38:30;9.88;;;4.63;;
18387;SDS011;9320;50.256;19.026;2022-10-26T10:41:05;9.23;;;4.60;;
18387;SDS011;9320;50.256;19.026;2022-10-26T10:43:44;7.80;;;5.00;;
18387;SDS011;9320;50.256;19.026;2022-10-26T10:46:18;13.77;;;5.22;;
18387;SDS011;9320;50.256;19.026;2022-10-26T10:48:51;8.05;;;4.93;;
18387;SDS011;9320;50.256;19.026;2022-10-26T10:51:29;9.15;;;4.75;;
18387;SDS011;9320;50.256;19.026;2022-10-26T10:54:02;10.45;;;5.05;;
18387;SDS011;9320;50.256;19.026;2022-10-26T10:56:36;7.55;;;4.57;;
18387;SDS011;9320;50.256;19.026;2022-10-26T10:59:14;9.20;;;4.60;;
18387;SDS011;9320;50.256;19.026;2022-10-26T11:01:58;7.88;;;4.68;;
18387;SDS011;9320;50.256;19.026;2022-10-26T11:04:48;8.55;;;4.82;;
18387;SDS011;9320;50.256;19.026;2022-10-26T11:07:28;11.45;;;5.10;;
18387;SDS011;9320;50.256;19.026;2022-10-26T11:09:59;8.52;;;4.88;;
18387;SDS011;9320;50.256;19.026;2022-10-26T11:12:30;9.15;;;4.40;;
18387;SDS011;9320;50.256;19.026;2022-10-26T11:15:04;10.73;;;4.40;;
18387;SDS011;9320;50.256;19.026;2022-10-26T11:17:41;11.38;;;4.60;;
18387;SDS011;9320;50.256;19.026;2022-10-26T11:20:14;7.43;;;4.20;;
18387;SDS011;9320;50.256;19.026;2022-10-26T11:22:53;7.47;;;4.25;;
18387;SDS011;9320;50.256;19.026;2022-10-26T11:25:33;5.53;;;3.60;;
18387;SDS011;9320;50.256;19.026;2022-10-26T11:28:10;5.38;;;3.72;;
18387;SDS011;9320;50.256;19.026;2022-10-26T11:30:45;7.15;;;3.90;;
18387;SDS011;9320;50.256;19.026;2022-10-26T11:33:18;7.80;;;3.53;;
18387;SDS011;9320;50.256;19.026;2022-10-26T11:35:51;6.65;;;3.88;;
18387;SDS011;9320;50.256;19.026;2022-10-26T11:38:23;7.25;;;4.10;;
18387;SDS011;9320;50.256;19.026;2022-10-26T11:41:12;7.40;;;4.35;;
18387;SDS011;9320;50.256;19.026;2022-10-26T11:43:46;5.13;;;3.70;;
18387;SDS011;9320;50.256;19.026;2022-10-26T11:46:17;9.82;;;4.53;;
18387;SDS011;9320;50.256;19.026;2022-10-26T11:48:50;6.95;;;4.03;;
18387;SDS011;9320;50.256;19.026;2022-10-26T11:51:30;7.95;;;4.45;;
18387;SDS011;9320;50.256;19.026;2022-10-26T11:54:06;7.22;;;4.25;;
18387;SDS011;9320;50.256;19.026;2022-10-26T11:56:39;9.05;;;4.40;;
18387;SDS011;9320;50.256;19.026;2022-10-26T11:59:14;11.02;;;4.15;;
18387;SDS011;9320;50.256;19.026;2022-10-26T12:02:01;6.43;;;3.75;;
18387;SDS011;9320;50.256;19.026;2022-10-26T12:04:37;10.65;;;4.28;;
18387;SDS011;9320;50.256;19.026;2022-10-26T12:07:09;6.53;;;3.78;;
18387;SDS011;9320;50.256;19.026;2022-10-26T12:09:46;6.10;;;4.18;;
18387;SDS011;9320;50.256;19.026;2022-10-26T12:12:16;7.88;;;4.10;;
18387;SDS011;9320;50.256;19.026;2022-10-26T12:14:49;10.15;;;4.25;;
18387;SDS011;9320;50.256;19.026;2022-10-26T12:17:24;8.90;;;4.20;;
18387;SDS011;9320;50.256;19.026;2022-10-26T12:19:59;8.23;;;4.07;;
18387;SDS011;9320;50.256;19.026;2022-10-26T12:22:33;9.65;;;4.20;;
18387;SDS011;9320;50.256;19.026;2022-10-26T12:25:06;6.82;;;3.90;;
18387;SDS011;9320;50.256;19.026;2022-10-26T12:27:49;9.38;;;3.95;;
18387;SDS011;9320;50.256;19.026;2022-10-26T12:30:23;6.25;;;3.63;;
18387;SDS011;9320;50.256;19.026;2022-10-26T12:32:57;7.40;;;3.70;;
18387;SDS011;9320;50.256;19.026;2022-10-26T12:35:39;4.65;;;3.70;;
18387;SDS011;9320;50.256;19.026;2022-10-26T12:41:22;8.95;;;4.07;;
18387;SDS011;9320;50.256;19.026;2022-10-26T12:44:00;7.30;;;3.90;;
18387;SDS011;9320;50.256;19.026;2022-10-26T12:46:38;7.30;;;3.92;;
18387;SDS011;9320;50.256;19.026;2022-10-26T12:55:25;6.18;;;4.05;;
18387;SDS011;9320;50.256;19.026;2022-10-26T13:01:16;6.00;;;3.45;;
18387;SDS011;9320;50.256;19.026;2022-10-26T13:04:00;4.00;;;3.28;;
18387;SDS011;9320;50.256;19.026;2022-10-26T13:06:44;6.05;;;3.50;;
18387;SDS011;9320;50.256;19.026;2022-10-26T13:09:26;5.22;;;3.15;;
18387;SDS011;9320;50.256;19.026;2022-10-26T13:12:00;6.30;;;3.63;;
18387;SDS011;9320;50.256;19.026;2022-10-26T13:14:30;4.97;;;3.33;;
18387;SDS011;9320;50.256;19.026;2022-10-26T13:17:02;7.90;;;3.55;;
18387;SDS011;9320;50.256;19.026;2022-10-26T13:19:35;6.70;;;3.80;;
18387;SDS011;9320;50.256;19.026;2022-10-26T13:22:11;9.95;;;3.70;;
18387;SDS011;9320;50.256;19.026;2022-10-26T13:24:45;4.28;;;3.30;;
18387;SDS011;9320;50.256;19.026;2022-10-26T13:27:39;6.65;;;3.53;;
18387;SDS011;9320;50.256;19.026;2022-10-26T13:33:13;6.90;;;3.55;;
18387;SDS011;9320;50.256;19.026;2022-10-26T13:35:46;5.78;;;3.58;;
18387;SDS011;9320;50.256;19.026;2022-10-26T13:38:16;4.93;;;3.25;;
18387;SDS011;9320;50.256;19.026;2022-10-26T13:40:49;4.60;;;3.60;;
18387;SDS011;9320;50.256;19.026;2022-10-26T13:43:24;5.10;;;3.45;;
18387;SDS011;9320;50.256;19.026;2022-10-26T13:45:54;7.28;;;3.85;;
18387;SDS011;9320;50.256;19.026;2022-10-26T13:48:26;6.93;;;3.97;;
18387;SDS011;9320;50.256;19.026;2022-10-26T13:51:00;8.75;;;4.53;;
18387;SDS011;9320;50.256;19.026;2022-10-26T13:53:36;8.98;;;4.30;;
18387;SDS011;9320;50.256;19.026;2022-10-26T13:56:08;7.05;;;4.50;;
18387;SDS011;9320;50.256;19.026;2022-10-26T13:58:46;6.80;;;3.97;;
18387;SDS011;9320;50.256;19.026;2022-10-26T14:01:17;7.38;;;3.92;;
18387;SDS011;9320;50.256;19.026;2022-10-26T14:03:48;12.25;;;5.63;;
18387;SDS011;9320;50.256;19.026;2022-10-26T14:06:18;10.88;;;5.55;;
18387;SDS011;9320;50.256;19.026;2022-10-26T14:08:53;10.57;;;5.30;;
18387;SDS011;9320;50.256;19.026;2022-10-26T14:11:27;7.55;;;4.72;;
18387;SDS011;9320;50.256;19.026;2022-10-26T14:14:00;7.43;;;4.55;;
18387;SDS011;9320;50.256;19.026;2022-10-26T14:16:29;9.23;;;4.03;;
18387;SDS011;9320;50.256;19.026;2022-10-26T14:18:59;6.45;;;3.95;;
18387;SDS011;9320;50.256;19.026;2022-10-26T14:21:28;6.15;;;4.15;;
18387;SDS011;9320;50.256;19.026;2022-10-26T14:23:57;10.63;;;5.63;;
18387;SDS011;9320;50.256;19.026;2022-10-26T14:26:29;8.75;;;5.30;;
18387;SDS011;9320;50.256;19.026;2022-10-26T14:29:13;10.57;;;5.28;;
18387;SDS011;9320;50.256;19.026;2022-10-26T14:31:43;9.77;;;5.60;;
18387;SDS011;9320;50.256;19.026;2022-10-26T14:34:11;9.65;;;5.40;;
18387;SDS011;9320;50.256;19.026;2022-10-26T14:36:40;10.32;;;4.70;;
18387;SDS011;9320;50.256;19.026;2022-10-26T14:39:14;8.25;;;5.13;;
18387;SDS011;9320;50.256;19.026;2022-10-26T14:41:47;10.73;;;4.80;;
18387;SDS011;9320;50.256;19.026;2022-10-26T14:44:19;11.10;;;4.55;;
18387;SDS011;9320;50.256;19.026;2022-10-26T14:46:50;7.97;;;4.28;;
18387;SDS011;9320;50.256;19.026;2022-10-26T14:49:20;7.50;;;4.22;;
18387;SDS011;9320;50.256;19.026;2022-10-26T14:51:54;9.90;;;4.47;;
18387;SDS011;9320;50.256;19.026;2022-10-26T14:54:24;6.40;;;3.70;;
18387;SDS011;9320;50.256;19.026;2022-10-26T14:56:53;6.65;;;4.25;;
18387;SDS011;9320;50.256;19.026;2022-10-26T14:59:25;8.15;;;5.00;;
18387;SDS011;9320;50.256;19.026;2022-10-26T15:01:54;5.28;;;3.92;;
18387;SDS011;9320;50.256;19.026;2022-10-26T15:04:28;7.32;;;3.90;;
18387;SDS011;9320;50.256;19.026;2022-10-26T15:07:12;7.28;;;4.03;;
18387;SDS011;9320;50.256;19.026;2022-10-26T15:09:43;11.93;;;5.55;;
18387;SDS011;9320;50.256;19.026;2022-10-26T15:12:22;16.25;;;7.38;;
18387;SDS011;9320;50.256;19.026;2022-10-26T15:14:57;12.70;;;5.75;;
18387;SDS011;9320;50.256;19.026;2022-10-26T15:17:38;8.65;;;5.88;;
18387;SDS011;9320;50.256;19.026;2022-10-26T15:20:13;20.95;;;9.35;;
18387;SDS011;9320;50.256;19.026;2022-10-26T15:22:47;17.88;;;8.40;;
18387;SDS011;9320;50.256;19.026;2022-10-26T15:25:17;12.90;;;7.35;;
18387;SDS011;9320;50.256;19.026;2022-10-26T15:27:48;16.20;;;7.60;;